sensor_id;sensor_type;location;lat;lon;timestamp;pressure;altitude;pressure_sealevel;temperature;humidity
28927;BME280;16038;47.692;9.400;2023-05-19T11:52:43;96813.56;;;14.04;79.80
28927;BME280;16038;47.692;9.400;2023-05-19T11:55:08;96817.09;;;14.01;79.11
28927;BME280;16038;47.692;9.400;2023-05-19T11:57:38;96808.56;;;14.31;76.74
28927;BME280;16038;47.692;9.400;2023-05-19T12:00:04;96812.00;;;13.99;77.90
28927;BME280;16038;47.692;9.400;2023-05-19T12:02:34;96819.06;;;14.00;77.59
28927;BME280;16038;47.692;9.400;2023-05-19T12:05:00;96806.81;;;13.87;79.01
28927;BME280;16038;47.692;9.400;2023-05-19T12:07:26;96810.31;;;14.82;76.46
28927;BME280;16038;47.692;9.400;2023-05-19T12:09:51;96809.13;;;15.05;70.61
28927;BME280;16038;47.692;9.400;2023-05-19T12:12:21;96813.81;;;14.68;76.18
28927;BME280;16038;47.692;9.400;2023-05-19T12:14:48;96806.34;;;14.83;75.21
28927;BME280;16038;47.692;9.400;2023-05-19T12:17:19;96808.09;;;14.07;74.77
28927;BME280;16038;47.692;9.400;2023-05-19T12:19:46;96816.94;;;13.72;77.43
28927;BME280;16038;47.692;9.400;2023-05-19T12:22:13;96814.56;;;13.63;78.19
28927;BME280;16038;47.692;9.400;2023-05-19T12:24:40;96808.38;;;13.84;78.61
28927;BME280;16038;47.692;9.400;2023-05-19T12:27:11;96807.44;;;13.58;79.49
28927;BME280;16038;47.692;9.400;2023-05-19T12:29:38;96805.88;;;13.61;79.11
28927;BME280;16038;47.692;9.400;2023-05-19T12:32:07;96805.53;;;13.70;79.45
28927;BME280;16038;47.692;9.400;2023-05-19T12:34:35;96804.06;;;13.87;76.97
28927;BME280;16038;47.692;9.400;2023-05-19T12:37:01;96804.66;;;14.36;78.49
28927;BME280;16038;47.692;9.400;2023-05-19T12:39:27;96807.50;;;14.64;75.85
28927;BME280;16038;47.692;9.400;2023-05-19T12:42:00;96807.53;;;14.68;72.93
28927;BME280;16038;47.692;9.400;2023-05-19T12:44:26;96798.34;;;14.28;74.90
28927;BME280;16038;47.692;9.400;2023-05-19T12:46:52;96796.09;;;14.62;74.84
28927;BME280;16038;47.692;9.400;2023-05-19T12:49:17;96781.84;;;14.49;74.65
28927;BME280;16038;47.692;9.400;2023-05-19T12:51:50;96790.00;;;14.10;78.20
28927;BME280;16038;47.692;9.400;2023-05-19T12:54:21;96787.66;;;14.12;76.63
28927;BME280;16038;47.692;9.400;2023-05-19T12:56:50;96786.53;;;14.31;77.69
28927;BME280;16038;47.692;9.400;2023-05-19T12:59:23;96784.44;;;13.95;81.49
28927;BME280;16038;47.692;9.400;2023-05-19T13:01:56;96782.97;;;14.23;79.01
28927;BME280;16038;47.692;9.400;2023-05-19T13:04:23;96788.56;;;14.52;78.95
28927;BME280;16038;47.692;9.400;2023-05-19T13:06:48;96779.34;;;14.01;77.87
28927;BME280;16038;47.692;9.400;2023-05-19T13:09:14;96774.94;;;13.82;79.64
28927;BME280;16038;47.692;9.400;2023-05-19T13:11:42;96790.91;;;14.50;79.84
28927;BME280;16038;47.692;9.400;2023-05-19T13:14:08;96781.91;;;14.75;77.83
28927;BME280;16038;47.692;9.400;2023-05-19T13:16:34;96778.16;;;13.99;76.30
28927;BME280;16038;47.692;9.400;2023-05-19T13:18:59;96789.25;;;14.20;77.76
28927;BME280;16038;47.692;9.400;2023-05-19T13:21:25;96778.97;;;14.03;78.39
28927;BME280;16038;47.692;9.400;2023-05-19T13:23:50;96785.63;;;14.02;78.59
28927;BME280;16038;47.692;9.400;2023-05-19T13:26:17;96784.75;;;13.76;78.98
28927;BME280;16038;47.692;9.400;2023-05-19T13:28:42;96776.59;;;14.01;79.16
28927;BME280;16038;47.692;9.400;2023-05-19T13:31:07;96782.88;;;13.98;79.41
28927;BME280;16038;47.692;9.400;2023-05-19T13:33:33;96779.81;;;14.21;78.63
28927;BME280;16038;47.692;9.400;2023-05-19T13:35:58;96775.88;;;14.22;78.34
28927;BME280;16038;47.692;9.400;2023-05-19T13:38:23;96776.34;;;14.39;77.58
28927;BME280;16038;47.692;9.400;2023-05-19T13:40:49;96782.59;;;14.32;78.52
28927;BME280;16038;47.692;9.400;2023-05-19T13:43:14;96779.59;;;15.09;75.51
28927;BME280;16038;47.692;9.400;2023-05-19T13:45:40;96774.06;;;14.80;75.58
28927;BME280;16038;47.692;9.400;2023-05-19T13:48:07;96776.41;;;14.71;75.31
28927;BME280;16038;47.692;9.400;2023-05-19T13:50:32;96783.81;;;14.45;77.13
28927;BME280;16038;47.692;9.400;2023-05-19T13:52:58;96779.97;;;15.15;76.91
28927;BME280;16038;47.692;9.400;2023-05-19T13:55:24;96785.50;;;15.00;78.36
28927;BME280;16038;47.692;9.400;2023-05-19T13:57:51;96778.00;;;14.86;74.79
28927;BME280;16038;47.692;9.400;2023-05-19T14:00:17;96783.03;;;14.52;75.46
28927;BME280;16038;47.692;9.400;2023-05-19T14:02:43;96788.22;;;14.68;75.09
28927;BME280;16038;47.692;9.400;2023-05-19T14:05:09;96779.59;;;15.27;74.13
28927;BME280;16038;47.692;9.400;2023-05-19T14:07:34;96781.94;;;14.93;75.54
28927;BME280;16038;47.692;9.400;2023-05-19T14:10:01;96770.88;;;14.78;76.23
28927;BME280;16038;47.692;9.400;2023-05-19T14:12:27;96783.81;;;14.42;77.09
28927;BME280;16038;47.692;9.400;2023-05-19T14:14:53;96772.47;;;14.68;76.30
28927;BME280;16038;47.692;9.400;2023-05-19T14:17:18;96772.09;;;14.74;75.56
28927;BME280;16038;47.692;9.400;2023-05-19T14:19:44;96772.09;;;14.88;74.59
28927;BME280;16038;47.692;9.400;2023-05-19T14:22:09;96774.06;;;14.73;75.08
28927;BME280;16038;47.692;9.400;2023-05-19T14:24:34;96774.38;;;14.43;75.65
28927;BME280;16038;47.692;9.400;2023-05-19T14:27:00;96766.50;;;14.41;75.70
28927;BME280;16038;47.692;9.400;2023-05-19T14:29:25;96768.13;;;14.75;74.11
28927;BME280;16038;47.692;9.400;2023-05-19T14:31:51;96775.63;;;14.99;74.83
28927;BME280;16038;47.692;9.400;2023-05-19T14:34:16;96768.13;;;14.71;76.70
28927;BME280;16038;47.692;9.400;2023-05-19T14:36:45;96774.78;;;14.48;75.67
28927;BME280;16038;47.692;9.400;2023-05-19T14:39:10;96779.97;;;14.71;74.15
28927;BME280;16038;47.692;9.400;2023-05-19T14:41:36;96779.59;;;14.80;75.76
28927;BME280;16038;47.692;9.400;2023-05-19T14:44:02;96779.97;;;15.00;75.25
28927;BME280;16038;47.692;9.400;2023-05-19T14:46:27;96781.13;;;15.49;73.28
28927;BME280;16038;47.692;9.400;2023-05-19T14:48:52;96764.59;;;14.96;74.85
28927;BME280;16038;47.692;9.400;2023-05-19T14:51:18;96772.09;;;15.02;73.77
28927;BME280;16038;47.692;9.400;2023-05-19T14:53:43;96770.09;;;15.32;72.54
28927;BME280;16038;47.692;9.400;2023-05-19T14:56:09;96778.41;;;15.14;73.78
28927;BME280;16038;47.692;9.400;2023-05-19T14:58:34;96766.56;;;14.84;73.25
28927;BME280;16038;47.692;9.400;2023-05-19T15:01:00;96774.78;;;14.52;76.40
28927;BME280;16038;47.692;9.400;2023-05-19T15:03:25;96771.25;;;14.51;77.39
28927;BME280;16038;47.692;9.400;2023-05-19T15:05:51;96769.50;;;13.96;77.30
28927;BME280;16038;47.692;9.400;2023-05-19T15:08:16;96757.28;;;13.90;79.35
28927;BME280;16038;47.692;9.400;2023-05-19T15:10:41;96758.50;;;14.04;79.07
28927;BME280;16038;47.692;9.400;2023-05-19T15:13:07;96768.47;;;14.48;77.85
28927;BME280;16038;47.692;9.400;2023-05-19T15:15:32;96765.28;;;14.28;77.32
28927;BME280;16038;47.692;9.400;2023-05-19T15:17:57;96769.59;;;14.32;78.18
28927;BME280;16038;47.692;9.400;2023-05-19T15:20:23;96762.53;;;14.24;78.00
28927;BME280;16038;47.692;9.400;2023-05-19T15:22:48;96758.50;;;14.07;78.73
28927;BME280;16038;47.692;9.400;2023-05-19T15:25:14;96762.59;;;14.60;78.44
28927;BME280;16038;47.692;9.400;2023-05-19T15:27:39;96763.03;;;14.91;75.27
28927;BME280;16038;47.692;9.400;2023-05-19T15:30:05;96761.44;;;14.58;76.30
28927;BME280;16038;47.692;9.400;2023-05-19T15:32:31;96756.22;;;14.31;78.48
28927;BME280;16038;47.692;9.400;2023-05-19T15:34:56;96746.72;;;14.07;77.83
28927;BME280;16038;47.692;9.400;2023-05-19T15:37:22;96756.81;;;13.70;80.16
28927;BME280;16038;47.692;9.400;2023-05-19T15:39:47;96752.47;;;13.73;80.79
28927;BME280;16038;47.692;9.400;2023-05-19T15:42:12;96759.13;;;13.68;79.81
28927;BME280;16038;47.692;9.400;2023-05-19T15:44:38;96738.63;;;13.55;81.57
28927;BME280;16038;47.692;9.400;2023-05-19T15:47:03;96752.03;;;13.64;81.38
28927;BME280;16038;47.692;9.400;2023-05-19T15:49:29;96749.28;;;13.64;81.94
28927;BME280;16038;47.692;9.400;2023-05-19T15:51:54;96743.22;;;13.33;83.70
28927;BME280;16038;47.692;9.400;2023-05-19T15:54:19;96757.53;;;13.60;82.78
28927;BME280;16038;47.692;9.400;2023-05-19T15:56:45;96740.28;;;13.70;81.96
28927;BME280;16038;47.692;9.400;2023-05-19T15:59:10;96743.31;;;13.47;82.59
28927;BME280;16038;47.692;9.400;2023-05-19T16:01:35;96737.44;;;13.52;82.63
28927;BME280;16038;47.692;9.400;2023-05-19T16:04:01;96735.16;;;13.65;82.84
28927;BME280;16038;47.692;9.400;2023-05-19T16:06:28;96745.03;;;13.18;83.99
28927;BME280;16038;47.692;9.400;2023-05-19T16:08:53;96739.91;;;13.09;84.45
28927;BME280;16038;47.692;9.400;2023-05-19T16:11:19;96721.34;;;12.99;85.65
28927;BME280;16038;47.692;9.400;2023-05-19T16:13:45;96736.34;;;13.09;86.64
28927;BME280;16038;47.692;9.400;2023-05-19T16:16:11;96739.81;;;12.98;86.91
28927;BME280;16038;47.692;9.400;2023-05-19T16:18:36;96730.03;;;13.05;87.21
28927;BME280;16038;47.692;9.400;2023-05-19T16:21:02;96727.28;;;13.05;86.83
28927;BME280;16038;47.692;9.400;2023-05-19T16:23:27;96725.22;;;12.91;87.06
28927;BME280;16038;47.692;9.400;2023-05-19T16:25:52;96734.28;;;12.95;86.90
28927;BME280;16038;47.692;9.400;2023-05-19T16:28:19;96721.94;;;12.74;86.75
28927;BME280;16038;47.692;9.400;2023-05-19T16:30:44;96719.53;;;12.69;88.15
28927;BME280;16038;47.692;9.400;2023-05-19T16:33:10;96723.88;;;12.70;88.44
28927;BME280;16038;47.692;9.400;2023-05-19T16:35:36;96733.59;;;12.57;89.63
28927;BME280;16038;47.692;9.400;2023-05-19T16:38:01;96715.97;;;12.65;89.98
28927;BME280;16038;47.692;9.400;2023-05-19T16:40:27;96721.41;;;12.58;90.35
28927;BME280;16038;47.692;9.400;2023-05-19T16:42:52;96720.69;;;12.65;89.81
28927;BME280;16038;47.692;9.400;2023-05-19T16:45:18;96729.28;;;12.59;89.98
28927;BME280;16038;47.692;9.400;2023-05-19T16:47:43;96720.59;;;12.54;89.71
28927;BME280;16038;47.692;9.400;2023-05-19T16:50:09;96723.88;;;12.70;88.73
28927;BME280;16038;47.692;9.400;2023-05-19T16:52:35;96722.56;;;12.53;89.69
28927;BME280;16038;47.692;9.400;2023-05-19T16:55:01;96726.22;;;12.68;89.65
28927;BME280;16038;47.692;9.400;2023-05-19T16:57:26;96724.13;;;12.54;90.62
28927;BME280;16038;47.692;9.400;2023-05-19T16:59:51;96735.75;;;12.40;90.54
28927;BME280;16038;47.692;9.400;2023-05-19T17:02:17;96721.63;;;12.38;90.75
28927;BME280;16038;47.692;9.400;2023-05-19T17:04:42;96728.03;;;12.50;90.62
28927;BME280;16038;47.692;9.400;2023-05-19T17:07:11;96725.63;;;12.45;89.67
28927;BME280;16038;47.692;9.400;2023-05-19T17:09:40;96722.84;;;12.41;90.11
28927;BME280;16038;47.692;9.400;2023-05-19T17:12:06;96723.25;;;12.43;89.86
28927;BME280;16038;47.692;9.400;2023-05-19T17:14:31;96726.38;;;12.41;91.28
28927;BME280;16038;47.692;9.400;2023-05-19T17:16:56;96706.28;;;12.34;90.97
28927;BME280;16038;47.692;9.400;2023-05-19T17:19:22;96724.78;;;12.40;90.83
28927;BME280;16038;47.692;9.400;2023-05-19T17:21:47;96716.84;;;12.28;91.18
28927;BME280;16038;47.692;9.400;2023-05-19T17:24:12;96720.00;;;12.30;91.90
28927;BME280;16038;47.692;9.400;2023-05-19T17:26:38;96719.72;;;12.42;91.40
28927;BME280;16038;47.692;9.400;2023-05-19T17:29:03;96723.56;;;12.34;91.69
28927;BME280;16038;47.692;9.400;2023-05-19T17:31:29;96723.06;;;12.25;92.26
28927;BME280;16038;47.692;9.400;2023-05-19T17:33:55;96715.25;;;12.27;93.33
28927;BME280;16038;47.692;9.400;2023-05-19T17:36:21;96717.53;;;12.21;93.09
28927;BME280;16038;47.692;9.400;2023-05-19T17:38:46;96720.69;;;12.23;93.35
28927;BME280;16038;47.692;9.400;2023-05-19T17:41:11;96721.09;;;12.26;92.59
28927;BME280;16038;47.692;9.400;2023-05-19T17:43:41;96730.50;;;12.21;92.91
28927;BME280;16038;47.692;9.400;2023-05-19T17:46:07;96730.97;;;12.30;93.09
28927;BME280;16038;47.692;9.400;2023-05-19T17:48:33;96731.66;;;12.20;93.61
28927;BME280;16038;47.692;9.400;2023-05-19T17:50:58;96737.56;;;12.22;92.82
28927;BME280;16038;47.692;9.400;2023-05-19T17:53:25;96725.38;;;12.19;93.50
28927;BME280;16038;47.692;9.400;2023-05-19T17:55:52;96718.66;;;12.17;92.25
28927;BME280;16038;47.692;9.400;2023-05-19T17:58:18;96728.50;;;12.18;92.03
28927;BME280;16038;47.692;9.400;2023-05-19T18:00:44;96724.16;;;12.17;93.12
28927;BME280;16038;47.692;9.400;2023-05-19T18:03:09;96728.50;;;12.18;93.51
28927;BME280;16038;47.692;9.400;2023-05-19T18:05:35;96723.41;;;12.20;92.73
28927;BME280;16038;47.692;9.400;2023-05-19T18:08:04;96732.44;;;12.20;92.61
28927;BME280;16038;47.692;9.400;2023-05-19T18:10:35;96740.25;;;12.18;92.71
28927;BME280;16038;47.692;9.400;2023-05-19T18:13:00;96734.03;;;12.21;92.52
28927;BME280;16038;47.692;9.400;2023-05-19T18:15:26;96733.66;;;12.23;92.65
28927;BME280;16038;47.692;9.400;2023-05-19T18:17:51;96736.72;;;12.18;93.16
28927;BME280;16038;47.692;9.400;2023-05-19T18:20:17;96732.38;;;12.17;93.61
28927;BME280;16038;47.692;9.400;2023-05-19T18:22:42;96734.34;;;12.16;93.68
28927;BME280;16038;47.692;9.400;2023-05-19T18:25:08;96736.34;;;12.19;94.57
28927;BME280;16038;47.692;9.400;2023-05-19T18:27:33;96736.28;;;12.12;94.20
28927;BME280;16038;47.692;9.400;2023-05-19T18:29:59;96742.16;;;12.11;94.33
28927;BME280;16038;47.692;9.400;2023-05-19T18:32:24;96745.59;;;12.04;95.02
28927;BME280;16038;47.692;9.400;2023-05-19T18:34:49;96738.59;;;12.07;94.60
28927;BME280;16038;47.692;9.400;2023-05-19T18:37:16;96735.44;;;12.08;95.23
28927;BME280;16038;47.692;9.400;2023-05-19T18:39:41;96736.63;;;12.07;95.93
28927;BME280;16038;47.692;9.400;2023-05-19T18:42:06;96726.38;;;12.04;96.12
28927;BME280;16038;47.692;9.400;2023-05-19T18:44:32;96720.94;;;12.08;94.69
28927;BME280;16038;47.692;9.400;2023-05-19T18:46:58;96716.66;;;12.10;95.33
28927;BME280;16038;47.692;9.400;2023-05-19T18:49:23;96722.56;;;12.12;94.94
28927;BME280;16038;47.692;9.400;2023-05-19T18:51:49;96715.91;;;12.17;95.06
28927;BME280;16038;47.692;9.400;2023-05-19T18:54:14;96724.00;;;12.02;94.83
28927;BME280;16038;47.692;9.400;2023-05-19T18:56:40;96716.94;;;12.01;95.13
28927;BME280;16038;47.692;9.400;2023-05-19T18:59:06;96716.56;;;12.03;96.02
28927;BME280;16038;47.692;9.400;2023-05-19T19:01:32;96718.91;;;12.04;96.04
28927;BME280;16038;47.692;9.400;2023-05-19T19:03:57;96723.25;;;12.05;96.11
28927;BME280;16038;47.692;9.400;2023-05-19T19:06:22;96721.78;;;12.15;95.80
28927;BME280;16038;47.692;9.400;2023-05-19T19:08:48;96719.28;;;11.99;96.08
28927;BME280;16038;47.692;9.400;2023-05-19T19:11:13;96723.13;;;11.95;96.13
28927;BME280;16038;47.692;9.400;2023-05-19T19:13:39;96721.25;;;12.02;96.15
28927;BME280;16038;47.692;9.400;2023-05-19T19:16:05;96729.00;;;11.93;96.68
28927;BME280;16038;47.692;9.400;2023-05-19T19:18:30;96723.91;;;11.95;96.96
28927;BME280;16038;47.692;9.400;2023-05-19T19:20:56;96722.06;;;12.03;97.15
28927;BME280;16038;47.692;9.400;2023-05-19T19:23:22;96724.13;;;12.13;96.43
28927;BME280;16038;47.692;9.400;2023-05-19T19:25:48;96725.50;;;11.96;96.40
28927;BME280;16038;47.692;9.400;2023-05-19T19:28:13;96737.16;;;11.90;96.58
28927;BME280;16038;47.692;9.400;2023-05-19T19:30:39;96739.19;;;11.93;96.67
28927;BME280;16038;47.692;9.400;2023-05-19T19:33:04;96744.69;;;11.93;97.48
28927;BME280;16038;47.692;9.400;2023-05-19T19:35:30;96735.84;;;12.07;96.26
28927;BME280;16038;47.692;9.400;2023-05-19T19:37:55;96743.34;;;12.13;96.11
28927;BME280;16038;47.692;9.400;2023-05-19T19:40:22;96742.19;;;12.14;95.06
28927;BME280;16038;47.692;9.400;2023-05-19T19:42:49;96745.78;;;12.22;94.66
28927;BME280;16038;47.692;9.400;2023-05-19T19:45:14;96742.34;;;12.29;95.03
28927;BME280;16038;47.692;9.400;2023-05-19T19:47:40;96734.53;;;12.34;94.47
28927;BME280;16038;47.692;9.400;2023-05-19T19:50:06;96736.28;;;12.12;95.55
28927;BME280;16038;47.692;9.400;2023-05-19T19:52:32;96735.72;;;11.96;96.67
28927;BME280;16038;47.692;9.400;2023-05-19T19:54:57;96735.31;;;11.97;96.37
28927;BME280;16038;47.692;9.400;2023-05-19T19:57:23;96737.59;;;11.92;96.97
28927;BME280;16038;47.692;9.400;2023-05-19T19:59:48;96747.47;;;11.96;97.60
28927;BME280;16038;47.692;9.400;2023-05-19T20:02:21;96752.44;;;11.87;98.16
28927;BME280;16038;47.692;9.400;2023-05-19T20:04:46;96752.72;;;11.78;99.12
28927;BME280;16038;47.692;9.400;2023-05-19T20:07:11;96753.50;;;11.79;98.81
28927;BME280;16038;47.692;9.400;2023-05-19T20:09:37;96753.09;;;11.77;99.81
28927;BME280;16038;47.692;9.400;2023-05-19T20:12:03;96748.50;;;11.88;99.81
28927;BME280;16038;47.692;9.400;2023-05-19T20:14:28;96743.75;;;11.81;99.57
28927;BME280;16038;47.692;9.400;2023-05-19T20:16:53;96736.75;;;11.88;99.31
28927;BME280;16038;47.692;9.400;2023-05-19T20:19:19;96739.91;;;11.90;98.94
28927;BME280;16038;47.692;9.400;2023-05-19T20:21:44;96727.06;;;11.97;98.61
28927;BME280;16038;47.692;9.400;2023-05-19T20:24:10;96727.84;;;11.94;98.88
28927;BME280;16038;47.692;9.400;2023-05-19T20:26:35;96720.34;;;11.91;99.50
28927;BME280;16038;47.692;9.400;2023-05-19T20:29:01;96729.41;;;11.95;99.49
28927;BME280;16038;47.692;9.400;2023-05-19T20:31:26;96724.81;;;12.03;99.03
28927;BME280;16038;47.692;9.400;2023-05-19T20:33:51;96718.88;;;12.01;98.83
28927;BME280;16038;47.692;9.400;2023-05-19T20:36:17;96721.53;;;11.94;99.93
28927;BME280;16038;47.692;9.400;2023-05-19T20:38:42;96720.66;;;11.86;100.00
28927;BME280;16038;47.692;9.400;2023-05-19T20:41:07;96722.16;;;11.80;100.00
28927;BME280;16038;47.692;9.400;2023-05-19T20:43:33;96713.53;;;11.78;100.00
28927;BME280;16038;47.692;9.400;2023-05-19T20:45:58;96703.03;;;11.87;100.00
28927;BME280;16038;47.692;9.400;2023-05-19T20:48:25;96707.31;;;11.84;100.00
28927;BME280;16038;47.692;9.400;2023-05-19T20:50:52;96707.31;;;11.84;100.00
28927;BME280;16038;47.692;9.400;2023-05-19T20:53:17;96704.91;;;11.79;100.00
28927;BME280;16038;47.692;9.400;2023-05-19T20:55:44;96699.03;;;11.81;100.00
28927;BME280;16038;47.692;9.400;2023-05-19T20:58:10;96713.19;;;11.83;100.00
28927;BME280;16038;47.692;9.400;2023-05-19T21:00:36;96710.09;;;11.88;100.00
28927;BME280;16038;47.692;9.400;2023-05-19T21:03:01;96710.91;;;11.89;100.00
28927;BME280;16038;47.692;9.400;2023-05-19T21:05:26;96706.97;;;11.90;100.00
28927;BME280;16038;47.692;9.400;2023-05-19T21:07:52;96709.31;;;11.88;100.00
28927;BME280;16038;47.692;9.400;2023-05-19T21:10:17;96705.41;;;11.89;100.00
28927;BME280;16038;47.692;9.400;2023-05-19T21:12:43;96708.06;;;11.81;100.00
28927;BME280;16038;47.692;9.400;2023-05-19T21:15:08;96706.41;;;11.73;100.00
28927;BME280;16038;47.692;9.400;2023-05-19T21:17:34;96715.81;;;11.72;100.00
28927;BME280;16038;47.692;9.400;2023-05-19T21:19:59;96712.66;;;11.74;100.00
28927;BME280;16038;47.692;9.400;2023-05-19T21:22:25;96708.72;;;11.71;100.00
28927;BME280;16038;47.692;9.400;2023-05-19T21:24:52;96711.78;;;11.66;100.00
28927;BME280;16038;47.692;9.400;2023-05-19T21:27:18;96710.59;;;11.63;100.00
28927;BME280;16038;47.692;9.400;2023-05-19T21:29:43;96712.94;;;11.61;100.00
28927;BME280;16038;47.692;9.400;2023-05-19T21:32:08;96707.00;;;11.59;100.00
28927;BME280;16038;47.692;9.400;2023-05-19T21:34:34;96704.66;;;11.58;100.00
28927;BME280;16038;47.692;9.400;2023-05-19T21:36:59;96705.06;;;11.60;100.00
28927;BME280;16038;47.692;9.400;2023-05-19T21:39:25;96706.22;;;11.59;100.00
28927;BME280;16038;47.692;9.400;2023-05-19T21:41:50;96708.13;;;11.55;100.00
28927;BME280;16038;47.692;9.400;2023-05-19T21:44:16;96706.97;;;11.56;100.00
28927;BME280;16038;47.692;9.400;2023-05-19T21:46:41;96692.78;;;11.50;100.00
28927;BME280;16038;47.692;9.400;2023-05-19T21:49:07;96701.00;;;11.50;100.00
28927;BME280;16038;47.692;9.400;2023-05-19T21:51:32;96684.94;;;11.48;100.00
28927;BME280;16038;47.692;9.400;2023-05-19T21:54:01;96686.94;;;11.52;100.00
28927;BME280;16038;47.692;9.400;2023-05-19T21:56:27;96685.78;;;11.53;100.00
28927;BME280;16038;47.692;9.400;2023-05-19T21:58:53;96688.13;;;11.51;100.00
28927;BME280;16038;47.692;9.400;2023-05-19T22:01:18;96688.44;;;11.45;100.00
28927;BME280;16038;47.692;9.400;2023-05-19T22:03:44;96685.28;;;11.43;100.00
28927;BME280;16038;47.692;9.400;2023-05-19T22:06:09;96685.28;;;11.43;100.00
28927;BME280;16038;47.692;9.400;2023-05-19T22:08:34;96679.41;;;11.45;100.00
28927;BME280;16038;47.692;9.400;2023-05-19T22:11:00;96673.53;;;11.46;100.00
28927;BME280;16038;47.692;9.400;2023-05-19T22:13:25;96672.44;;;11.51;100.00
28927;BME280;16038;47.692;9.400;2023-05-19T22:15:51;96672.06;;;11.53;100.00
28927;BME280;16038;47.692;9.400;2023-05-19T22:18:16;96670.53;;;11.55;100.00
28927;BME280;16038;47.692;9.400;2023-05-19T22:20:42;96658.78;;;11.55;100.00
28927;BME280;16038;47.692;9.400;2023-05-19T22:23:07;96661.50;;;11.55;100.00
28927;BME280;16038;47.692;9.400;2023-05-19T22:25:32;96658.00;;;11.54;100.00
28927;BME280;16038;47.692;9.400;2023-05-19T22:27:58;96652.09;;;11.56;100.00
28927;BME280;16038;47.692;9.400;2023-05-19T22:30:25;96646.63;;;11.56;100.00
28927;BME280;16038;47.692;9.400;2023-05-19T22:32:51;96637.22;;;11.57;100.00
28927;BME280;16038;47.692;9.400;2023-05-19T22:35:16;96650.22;;;11.60;100.00
28927;BME280;16038;47.692;9.400;2023-05-19T22:37:43;96651.00;;;11.60;100.00
28927;BME280;16038;47.692;9.400;2023-05-19T22:40:08;96651.78;;;11.61;100.00
28927;BME280;16038;47.692;9.400;2023-05-19T22:42:34;96650.69;;;11.69;100.00
28927;BME280;16038;47.692;9.400;2023-05-19T22:44:59;96650.28;;;11.67;100.00
28927;BME280;16038;47.692;9.400;2023-05-19T22:47:25;96648.69;;;11.66;100.00
28927;BME280;16038;47.692;9.400;2023-05-19T22:49:50;96650.28;;;11.67;100.00
28927;BME280;16038;47.692;9.400;2023-05-19T22:52:16;96643.16;;;11.62;100.00
28927;BME280;16038;47.692;9.400;2023-05-19T22:54:41;96648.69;;;11.66;100.00
28927;BME280;16038;47.692;9.400;2023-05-19T22:57:07;96641.66;;;11.65;100.00
28927;BME280;16038;47.692;9.400;2023-05-19T22:59:33;96641.69;;;11.69;100.00
28927;BME280;16038;47.692;9.400;2023-05-19T23:01:59;96642.81;;;11.64;100.00
28927;BME280;16038;47.692;9.400;2023-05-19T23:04:25;96646.69;;;11.63;100.00
28927;BME280;16038;47.692;9.400;2023-05-19T23:06:50;96636.97;;;11.69;100.00
28927;BME280;16038;47.692;9.400;2023-05-19T23:09:15;96644.09;;;11.77;100.00
28927;BME280;16038;47.692;9.400;2023-05-19T23:11:42;96635.06;;;11.73;100.00
28927;BME280;16038;47.692;9.400;2023-05-19T23:14:07;96627.59;;;11.74;100.00
28927;BME280;16038;47.692;9.400;2023-05-19T23:16:33;96630.06;;;11.82;100.00
28927;BME280;16038;47.692;9.400;2023-05-19T23:18:58;96624.53;;;11.79;100.00
28927;BME280;16038;47.692;9.400;2023-05-19T23:21:23;96615.91;;;11.77;100.00
28927;BME280;16038;47.692;9.400;2023-05-19T23:23:49;96619.03;;;11.79;100.00
28927;BME280;16038;47.692;9.400;2023-05-19T23:26:14;96615.94;;;11.80;100.00
28927;BME280;16038;47.692;9.400;2023-05-19T23:28:41;96610.44;;;11.80;100.00
28927;BME280;16038;47.692;9.400;2023-05-19T23:31:06;96601.84;;;11.82;100.00
28927;BME280;16038;47.692;9.400;2023-05-19T23:33:32;96598.69;;;11.80;100.00
28927;BME280;16038;47.692;9.400;2023-05-19T23:35:58;96599.47;;;11.80;100.00
28927;BME280;16038;47.692;9.400;2023-05-19T23:38:23;96594.00;;;11.84;100.00
28927;BME280;16038;47.692;9.400;2023-05-19T23:40:49;96590.50;;;11.83;100.00
28927;BME280;16038;47.692;9.400;2023-05-19T23:43:14;96585.03;;;11.87;100.00
28927;BME280;16038;47.692;9.400;2023-05-19T23:45:40;96583.06;;;11.88;100.00
28927;BME280;16038;47.692;9.400;2023-05-19T23:48:05;96580.31;;;11.88;100.00
28927;BME280;16038;47.692;9.400;2023-05-19T23:50:31;96579.91;;;11.85;100.00
28927;BME280;16038;47.692;9.400;2023-05-19T23:52:56;96587.78;;;11.87;100.00
28927;BME280;16038;47.692;9.400;2023-05-19T23:55:21;96588.56;;;11.88;100.00
28927;BME280;16038;47.692;9.400;2023-05-19T23:57:47;96582.69;;;11.89;100.00
